createdAt,value
2023-07-03T04:36:57.977Z,100.00
2023-07-03T04:40:00.584Z,96.77
2023-07-03T04:43:03.565Z,95.38
2023-07-03T04:46:07.025Z,93.72
2023-07-03T04:49:10.033Z,92.40
2023-07-03T04:52:14.700Z,90.45
2023-07-03T04:55:18.531Z,89.32
2023-07-03T04:58:21.574Z,86.24
2023-07-03T05:01:25.675Z,82.19
2023-07-03T05:04:28.447Z,83.99
2023-07-03T05:07:32.747Z,81.57
2023-07-03T05:10:35.445Z,80.28
2023-07-03T05:13:38.444Z,80.09
2023-07-03T05:16:41.131Z,77.56
2023-07-03T05:19:44.028Z,77.27
2023-07-03T05:22:47.276Z,76.35
2023-07-03T05:25:50.791Z,74.02
2023-07-03T05:28:53.659Z,70.65
2023-07-03T05:31:56.733Z,72.96
2023-07-03T05:35:01.139Z,68.40
2023-07-03T05:38:04.426Z,72.88
2023-07-03T05:41:07.032Z,68.07
2023-07-03T05:44:09.978Z,64.02
2023-07-03T05:47:14.274Z,64.23
2023-07-03T05:50:17.462Z,65.44
2023-07-03T05:53:21.894Z,63.64
2023-07-03T05:56:28.412Z,64.14
2023-07-03T05:59:31.617Z,61.77
2023-07-03T06:02:37.117Z,60.71
2023-07-03T06:05:40.058Z,56.94
2023-07-03T06:08:42.806Z,57.66
2023-07-03T06:11:46.694Z,55.68
2023-07-03T06:14:49.288Z,57.85
2023-07-03T06:17:52.319Z,53.44
2023-07-03T06:20:55.476Z,53.90
2023-07-03T06:23:58.621Z,48.99
2023-07-03T06:27:04.135Z,50.70
2023-07-03T06:30:07.876Z,52.02
2023-07-03T06:33:10.488Z,51.38
2023-07-03T06:39:55.666Z,53.17
2023-07-03T06:42:59.270Z,47.65
2023-07-03T06:46:03.137Z,49.18
2023-07-03T06:49:06.441Z,44.93
2023-07-03T06:52:11.487Z,42.94
2023-07-03T06:55:14.459Z,40.97
2023-07-03T06:58:17.118Z,39.70
2023-07-03T07:01:23.428Z,41.11
2023-07-03T07:04:29.641Z,41.06
2023-07-03T07:07:33.002Z,41.53
2023-07-03T07:10:40.074Z,40.88
2023-07-03T07:13:45.755Z,40.00
2023-07-03T07:16:48.570Z,37.07
2023-07-03T07:19:51.564Z,35.87
2023-07-03T07:22:54.188Z,35.39
2023-07-03T07:25:58.702Z,36.22
2023-07-03T07:29:02.375Z,31.98
2023-07-03T07:32:05.893Z,31.88
2023-07-03T07:35:09.399Z,30.27
2023-07-03T07:38:12.800Z,35.75
2023-07-03T07:41:15.515Z,32.68
2023-07-03T07:44:19.402Z,37.17
2023-07-03T07:47:22.115Z,37.94
2023-07-03T07:50:25.244Z,32.78
2023-07-03T07:53:30.800Z,32.78
2023-07-03T07:56:34.510Z,34.48
2023-07-03T07:59:37.521Z,32.30
2023-07-03T08:02:40.581Z,32.64
2023-07-03T08:05:43.634Z,31.15
2023-07-03T08:08:47.183Z,35.41
2023-07-03T08:11:50.645Z,34.32
2023-07-03T08:14:53.332Z,35.09
2023-07-03T08:17:56.334Z,33.59
2023-07-03T08:20:59.013Z,32.86
2023-07-03T08:24:02.861Z,31.64
2023-07-03T08:27:07.194Z,29.04
2023-07-03T08:30:10.645Z,31.72
2023-07-03T08:33:15.298Z,34.13
2023-07-03T08:39:23.990Z,35.30
2023-07-03T10:55:46.971Z,30.92
2023-07-03T10:59:02.171Z,31.15
2023-07-03T11:02:14.036Z,30.50
2023-07-03T11:05:21.107Z,30.49
2023-07-03T11:08:29.500Z,31.63
2023-07-03T11:11:41.597Z,32.91
2023-07-03T11:14:58.489Z,32.44
2023-07-03T11:24:36.501Z,32.09
2023-07-03T11:28:04.522Z,32.57
2023-07-03T11:31:07.845Z,31.87
2023-07-03T11:40:55.060Z,33.58
2023-07-03T11:44:17.224Z,35.27
2023-07-03T11:47:26.698Z,36.11
2023-07-03T11:50:35.819Z,35.38
2023-07-03T11:53:49.411Z,38.79
2023-07-03T11:57:29.889Z,37.61
2023-07-03T12:00:33.657Z,38.12
2023-07-03T12:03:54.708Z,38.79
2023-07-03T12:06:57.664Z,38.34
2023-07-03T12:10:18.834Z,39.30
2023-07-03T12:13:30.294Z,38.61
2023-07-03T12:16:36.449Z,36.30
2023-07-03T12:19:39.167Z,35.05
2023-07-03T12:22:45.577Z,39.26
2023-07-03T12:25:48.391Z,36.90
2023-07-03T12:29:03.158Z,38.49
2023-07-03T12:32:09.155Z,37.94
2023-07-03T12:35:16.455Z,37.78
2023-07-03T12:38:24.741Z,37.72
2023-07-03T12:41:31.950Z,38.25
2023-07-03T12:44:35.287Z,37.55
2023-07-03T12:47:38.442Z,40.26
2023-07-03T12:50:49.113Z,38.27
2023-07-03T12:53:53.663Z,38.23
2023-07-03T12:56:57.409Z,39.33
2023-07-03T13:00:01.679Z,37.95
2023-07-03T13:03:14.096Z,40.11
2023-07-03T13:06:29.661Z,41.08
2023-07-03T13:09:33.221Z,40.85
2023-07-03T13:12:36.429Z,39.70
2023-07-03T13:15:42.307Z,40.29
2023-07-03T13:19:01.975Z,40.90
2023-07-03T13:22:19.191Z,39.33
2023-07-03T13:25:35.112Z,38.63
2023-07-03T13:28:41.847Z,39.16
2023-07-03T13:31:52.290Z,38.56
2023-07-03T13:35:06.411Z,39.06
2023-07-03T13:38:27.778Z,39.98
2023-07-03T13:41:30.946Z,43.76
2023-07-03T13:44:34.624Z,42.93
2023-07-03T13:47:37.353Z,41.31
2023-07-03T13:50:40.243Z,40.27
2023-07-03T14:56:36.992Z,45.91
2023-07-03T14:59:40.044Z,47.43
2023-07-03T15:02:49.519Z,47.19
2023-07-03T15:05:52.971Z,46.73
2023-07-03T15:08:56.518Z,48.29
2023-07-03T15:11:59.427Z,48.80
2023-07-03T15:15:02.334Z,49.57
2023-07-03T15:18:06.012Z,49.60
2023-07-03T15:21:08.737Z,47.74
2023-07-03T15:24:11.680Z,51.52
2023-07-03T15:27:14.269Z,46.69
2023-07-03T15:30:17.194Z,48.61
2023-07-03T15:33:19.961Z,49.19
2023-07-03T15:36:23.916Z,48.22
2023-07-03T15:39:26.895Z,48.36
2023-07-03T15:42:29.827Z,48.44
2023-07-03T15:45:33.337Z,51.80
2023-07-03T15:48:37.874Z,49.75
2023-07-03T15:51:41.434Z,51.42
2023-07-03T15:54:44.457Z,53.23
2023-07-03T15:57:47.109Z,56.91
2023-07-03T16:05:00.086Z,57.75
2023-07-03T16:08:03.106Z,59.22
2023-07-03T16:11:14.345Z,59.79
2023-07-03T16:14:18.508Z,60.73
2023-07-03T16:17:21.276Z,61.66
2023-07-03T16:20:24.293Z,60.41
2023-07-03T16:23:28.814Z,63.20
2023-07-03T16:26:32.172Z,62.40
2023-07-03T16:29:34.866Z,65.39
2023-07-03T16:32:37.850Z,66.74
2023-07-03T16:35:40.579Z,66.51
2023-07-03T16:38:53.364Z,64.43
2023-07-03T16:41:56.200Z,67.13
2023-07-03T16:44:59.149Z,61.27
2023-07-03T16:48:01.833Z,60.43
2023-07-03T16:51:06.434Z,64.93
2023-07-03T16:54:09.128Z,67.16
2023-07-03T16:57:12.149Z,67.47
2023-07-03T17:00:14.945Z,68.81
2023-07-03T17:03:18.060Z,68.12
2023-07-03T17:06:23.977Z,68.80
2023-07-03T17:09:26.964Z,71.85
2023-07-03T17:12:29.658Z,70.57
2023-07-03T17:15:35.818Z,68.59
2023-07-03T17:18:38.581Z,71.80
2023-07-03T17:21:41.751Z,69.74
2023-07-03T17:24:44.530Z,70.01
2023-07-03T17:27:47.551Z,68.50
2023-07-03T17:30:51.698Z,70.60
2023-07-03T17:33:55.692Z,73.39
2023-07-03T17:36:58.522Z,74.70
2023-07-03T17:40:05.298Z,75.06
2023-07-03T17:43:08.104Z,74.64
2023-07-03T17:46:12.227Z,76.49
2023-07-03T17:49:15.182Z,77.24
2023-07-03T17:52:21.248Z,74.43
2023-07-03T17:55:26.531Z,77.06
2023-07-03T17:58:29.795Z,76.81
2023-07-03T18:01:32.472Z,75.35
2023-07-03T18:04:35.834Z,76.38
2023-07-03T18:18:37.120Z,77.74
2023-07-03T18:21:40.990Z,80.73
2023-07-03T18:24:43.697Z,81.78
2023-07-03T18:27:46.956Z,83.49
2023-07-03T18:31:00.315Z,85.24
2023-07-03T18:34:03.468Z,84.52
2023-07-03T18:37:06.383Z,83.39
2023-07-03T18:40:09.805Z,84.76
2023-07-03T18:43:12.870Z,84.48
2023-07-03T18:46:16.887Z,84.36
2023-07-03T18:49:19.971Z,84.97
2023-07-03T18:52:24.184Z,84.75
2023-07-03T18:55:26.861Z,85.89
2023-07-03T18:58:29.920Z,85.57
2023-07-03T19:01:32.728Z,87.39
2023-07-03T19:04:36.195Z,86.98
2023-07-03T19:07:38.881Z,88.80
2023-07-03T19:10:42.396Z,88.75
2023-07-03T19:13:45.246Z,89.40
2023-07-03T19:16:48.573Z,88.48
2023-07-03T19:19:51.428Z,89.79
2023-07-03T19:22:55.124Z,91.81
2023-07-03T19:26:00.086Z,88.62
2023-07-03T19:29:03.232Z,91.03
2023-07-03T19:32:06.984Z,92.07
2023-07-03T19:35:10.320Z,91.96
2023-07-03T19:38:14.472Z,92.90
2023-07-03T19:41:17.588Z,94.79
2023-07-03T19:44:20.239Z,92.22
2023-07-03T19:47:23.477Z,94.12
2023-07-03T19:50:26.528Z,95.96
2023-07-03T19:53:30.758Z,97.26
2023-07-03T19:56:34.180Z,96.63
2023-07-03T19:59:37.276Z,96.81
2023-07-03T20:02:41.632Z,95.86
2023-07-03T20:05:46.408Z,97.57
2023-07-03T20:08:51.460Z,98.24
2023-07-03T20:11:54.462Z,99.70
2023-07-03T20:14:57.484Z,98.60
2023-07-03T20:18:00.710Z,99.99
2023-07-03T20:21:05.643Z,100.00
2023-07-03T20:24:08.809Z,100.00
2023-07-03T20:27:11.537Z,100.00
2023-07-03T20:30:23.031Z,100.00
2023-07-03T20:33:25.995Z,100.00
2023-07-03T20:36:30.226Z,100.00
2023-07-03T20:39:32.862Z,100.00
2023-07-03T20:42:36.247Z,100.00
2023-07-03T20:45:38.854Z,100.00
2023-07-03T20:48:42.939Z,100.00
2023-07-03T20:51:49.418Z,100.00
2023-07-03T20:55:05.873Z,100.00
2023-07-03T20:58:08.654Z,100.00
2023-07-03T21:01:20.422Z,100.00
2023-07-03T21:04:23.453Z,100.00
2023-07-03T21:07:26.540Z,100.00
2023-07-03T21:10:29.183Z,100.00
2023-07-03T21:13:32.319Z,100.00
2023-07-03T21:16:36.535Z,100.00
2023-07-03T21:19:39.773Z,100.00
2023-07-03T21:22:42.467Z,100.00
2023-07-03T21:25:45.454Z,100.00
2023-07-03T21:28:50.106Z,100.00
2023-07-03T21:31:53.375Z,100.00
2023-07-03T21:34:56.237Z,100.00
2023-07-03T21:37:59.538Z,100.00
2023-07-03T21:41:02.387Z,100.00
2023-07-03T21:44:16.290Z,100.00
2023-07-03T21:47:19.350Z,100.00
2023-07-03T21:50:22.930Z,100.00
2023-07-03T21:53:26.502Z,100.00
2023-07-03T21:56:31.327Z,100.00
2023-07-03T21:59:34.192Z,100.00
2023-07-03T22:02:37.243Z,100.00
2023-07-03T22:05:40.190Z,100.00
2023-07-03T22:08:42.948Z,100.00
2023-07-03T22:11:45.881Z,100.00
